This is the latest recevied weather packets stored in our database for station/object WA4ORT. If no packets are shown the sender has not sent any weather packets the latest 10 day(s).
| Time | Temp. | Humidity | Pressure | Rain* | Wind** | Luminosity | Snow |
|---|---|---|---|---|---|---|---|
| 1777640727 | 14.44° C | - | - | 0 mm | 2.24 m/s, 318° | - | - |
| 1777639833 | 13.89° C | - | - | 0 mm | 1.79 m/s, 315° | - | - |
| 1777638938 | 14.44° C | - | - | 0 mm | 2.68 m/s, 322° | - | - |
| 1777638040 | 14.44° C | - | - | 0 mm | 2.68 m/s, 326° | - | - |
| 1777637145 | 13.89° C | - | - | 0 mm | 1.34 m/s, 308° | - | - |
| 1777636250 | 13.89° C | - | - | 0 mm | 0.89 m/s, 321° | - | - |
| 1777635352 | 13.89° C | - | - | 0 mm | 0 m/s | - | - |
| 1777634457 | 13.33° C | - | - | 0 mm | 0.45 m/s, 222° | - | - |
| 1777633563 | 13.33° C | - | - | 0 mm | 0.45 m/s, 176° | - | - |
| 1777632664 | 13.89° C | - | - | 0 mm | 0 m/s | - | - |
| 1777631770 | 13.89° C | - | - | 0 mm | 0.45 m/s, 259° | - | - |
| 1777630875 | 14.44° C | - | - | 0 mm | 0 m/s | - | - |
| 1777629977 | 14.44° C | - | - | 0 mm | 1.34 m/s, 309° | - | - |
| 1777629082 | 14.44° C | - | - | 0 mm | 1.79 m/s, 319° | - | - |
| 1777628187 | 14.44° C | - | - | 0 mm | 1.34 m/s, 323° | - | - |
| 1777627289 | 13.89° C | - | - | 0 mm | 0.45 m/s, 259° | - | - |
| 1777626394 | 13.89° C | - | - | 0 mm | 0 m/s | - | - |
| 1777625549 | 14.44° C | - | - | 0 mm | 1.34 m/s, 328° | - | - |
| 1777625500 | 14.44° C | - | - | 0 mm | 1.34 m/s, 328° | - | - |
| 1777624601 | 14.44° C | - | - | 0 mm | 1.34 m/s, 322° | - | - |
| 1777623707 | 15° C | - | - | 0 mm | 1.34 m/s, 329° | - | - |
| 1777622812 | 15° C | - | - | 0 mm | 0.45 m/s, 276° | - | - |
| 1777621966 | 15° C | - | - | 0 mm | 0.45 m/s, 273° | - | - |
| 1777621914 | 15° C | - | - | 0 mm | 0.45 m/s, 273° | - | - |
| 1777621020 | 15° C | - | - | 0 mm | 1.34 m/s, 315° | - | - |
* Rain latest hour (hover to see other rain measurements)
** Current wind speed in m/s (hover to see current wind gust speed)